createdAt,value
2023-12-23T00:02:11.988Z,96293.97
2023-12-23T00:04:39.653Z,96288.19
2023-12-23T00:07:07.336Z,96285.23
2023-12-23T00:09:34.767Z,96285.18
2023-12-23T00:12:02.230Z,96281.20
2023-12-23T00:14:29.677Z,96284.04
2023-12-23T00:16:57.148Z,96283.66
2023-12-23T00:19:24.721Z,96286.08
2023-12-23T00:21:52.367Z,96284.55
2023-12-23T00:24:19.777Z,96288.02
2023-12-23T00:26:47.270Z,96297.07
2023-12-23T00:29:14.734Z,96294.41
2023-12-23T00:31:42.206Z,96296.25
2023-12-23T00:34:09.752Z,96294.31
2023-12-23T00:36:37.191Z,96295.92
2023-12-23T00:39:05.417Z,96291.80
2023-12-23T00:41:33.169Z,96299.23
2023-12-23T00:44:02.376Z,96290.76
2023-12-23T00:46:29.879Z,96297.09
2023-12-23T00:48:57.520Z,96297.61
2023-12-23T00:51:25.060Z,96299.49
2023-12-23T00:53:52.600Z,96300.58
2023-12-23T00:56:21.449Z,96300.38
2023-12-23T00:58:49.625Z,96303.27
2023-12-23T01:01:17.272Z,96300.98
2023-12-23T01:03:45.007Z,96302.02
2023-12-23T01:06:12.661Z,96300.56
2023-12-23T01:08:40.301Z,96299.59
2023-12-23T01:11:07.891Z,96297.63
2023-12-23T01:13:35.381Z,96291.05
2023-12-23T01:16:03.607Z,96291.42
2023-12-23T01:18:31.177Z,96291.47
2023-12-23T01:20:59.858Z,96291.00
2023-12-23T01:23:27.289Z,96293.40
2023-12-23T01:25:54.744Z,96295.99
2023-12-23T01:28:22.185Z,96296.50
2023-12-23T01:30:49.768Z,96294.88
2023-12-23T01:33:17.377Z,96293.34
2023-12-23T01:35:44.958Z,96292.91
2023-12-23T01:38:12.474Z,96287.96
2023-12-23T01:40:40.052Z,96294.58
2023-12-23T01:43:07.506Z,96290.58
2023-12-23T01:45:36.574Z,96294.60
2023-12-23T01:48:04.853Z,96293.80
2023-12-23T01:50:32.334Z,96290.55
2023-12-23T01:52:59.753Z,96288.88
2023-12-23T01:55:32.141Z,96282.84
2023-12-23T01:57:59.627Z,96279.38
2023-12-23T02:00:27.116Z,96276.52
2023-12-23T02:02:55.363Z,96277.98
2023-12-23T02:05:23.313Z,96273.04
2023-12-23T02:07:51.041Z,96277.21
2023-12-23T02:10:18.643Z,96276.98
2023-12-23T02:13:05.782Z,96277.17
2023-12-23T02:15:39.758Z,96275.73
2023-12-23T02:18:07.333Z,96271.41
2023-12-23T02:20:35.609Z,96272.50
2023-12-23T02:23:03.126Z,96271.32
2023-12-23T02:25:31.035Z,96264.91
2023-12-23T02:28:00.570Z,96264.78
2023-12-23T02:30:28.012Z,96266.17
2023-12-23T02:32:55.852Z,96264.95
2023-12-23T02:35:27.774Z,96264.31
2023-12-23T02:37:56.550Z,96262.94
2023-12-23T02:40:24.181Z,96260.52
2023-12-23T02:42:51.852Z,96261.92
2023-12-23T02:45:19.583Z,96263.52
2023-12-23T02:47:48.811Z,96264.02
2023-12-23T02:50:16.469Z,96262.71
2023-12-23T02:52:44.136Z,96265.97
2023-12-23T02:55:11.715Z,96271.25
2023-12-23T02:57:39.319Z,96276.60
2023-12-23T03:00:07.888Z,96276.41
2023-12-23T03:02:37.056Z,96273.98
2023-12-23T03:05:06.410Z,96271.70
2023-12-23T03:07:33.933Z,96274.04
2023-12-23T03:10:02.278Z,96274.64
2023-12-23T03:12:29.676Z,96280.55
2023-12-23T03:14:57.098Z,96282.95
2023-12-23T03:17:26.874Z,96280.63
2023-12-23T03:19:57.337Z,96284.02
2023-12-23T03:22:25.780Z,96283.40
2023-12-23T03:24:53.243Z,96284.13
2023-12-23T03:27:20.791Z,96285.95
2023-12-23T03:29:48.290Z,96285.35
2023-12-23T03:32:16.973Z,96280.73
2023-12-23T03:34:44.535Z,96285.92
2023-12-23T03:37:12.243Z,96283.05
2023-12-23T03:39:40.078Z,96285.32
2023-12-23T03:42:07.600Z,96286.11
2023-12-23T03:44:35.015Z,96291.70
2023-12-23T03:47:02.530Z,96291.33
2023-12-23T03:49:30.265Z,96290.84
2023-12-23T03:51:57.669Z,96286.61
2023-12-23T03:54:25.155Z,96286.70
2023-12-23T03:56:52.757Z,96294.11
2023-12-23T03:59:20.302Z,96296.54
2023-12-23T04:01:47.868Z,96302.91
2023-12-23T04:04:15.415Z,96307.98
2023-12-23T04:06:42.912Z,96305.35
2023-12-23T04:09:13.877Z,96307.80
2023-12-23T04:11:41.364Z,96309.84
2023-12-23T04:14:08.814Z,96308.56
2023-12-23T04:16:39.930Z,96311.79
2023-12-23T04:19:07.697Z,96309.42
2023-12-23T04:21:35.324Z,96311.74
2023-12-23T04:24:02.849Z,96310.63
2023-12-23T04:26:31.947Z,96314.23
2023-12-23T04:28:59.650Z,96317.86
2023-12-23T04:31:27.408Z,96314.98
2023-12-23T04:33:55.200Z,96314.88
2023-12-23T04:36:26.273Z,96314.87
2023-12-23T04:38:54.058Z,96314.78
2023-12-23T04:41:22.088Z,96317.50
2023-12-23T04:43:49.998Z,96319.63
2023-12-23T04:46:17.926Z,96321.25
2023-12-23T04:48:45.398Z,96320.93
2023-12-23T04:51:12.919Z,96322.95
2023-12-23T04:53:40.349Z,96321.33
2023-12-23T04:56:08.546Z,96324.64
2023-12-23T04:58:36.701Z,96324.38
2023-12-23T05:01:05.399Z,96325.06
2023-12-23T05:03:35.407Z,96328.63
2023-12-23T05:06:03.012Z,96330.59
2023-12-23T05:08:30.682Z,96331.15
2023-12-23T05:10:58.281Z,96334.17
2023-12-23T05:13:25.756Z,96334.33
2023-12-23T05:15:53.264Z,96333.91
2023-12-23T05:18:20.847Z,96337.41
2023-12-23T05:20:49.494Z,96340.63
2023-12-23T05:23:18.048Z,96342.66
2023-12-23T05:25:46.292Z,96347.55
2023-12-23T05:28:13.850Z,96349.95
2023-12-23T05:30:41.452Z,96353.27
2023-12-23T05:33:09.042Z,96361.17
2023-12-23T05:35:36.528Z,96365.02
2023-12-23T05:38:04.821Z,96366.87
2023-12-23T05:40:32.485Z,96366.20
2023-12-23T05:43:00.990Z,96372.07
2023-12-23T05:45:28.415Z,96378.11
2023-12-23T05:47:55.866Z,96381.11
2023-12-23T05:50:23.525Z,96383.40
2023-12-23T05:52:51.385Z,96385.27
2023-12-23T05:55:20.626Z,96386.08
2023-12-23T05:57:48.110Z,96383.52
2023-12-23T06:00:16.349Z,96388.60
2023-12-23T06:02:43.819Z,96390.56
2023-12-23T06:05:11.362Z,96391.77
2023-12-23T06:07:39.008Z,96392.95
2023-12-23T06:10:07.611Z,96392.45
2023-12-23T06:12:35.101Z,96395.09
2023-12-23T06:15:02.524Z,96391.57
2023-12-23T06:17:30.131Z,96401.89
2023-12-23T06:19:57.730Z,96407.73
2023-12-23T06:22:25.164Z,96407.14
2023-12-23T06:24:52.673Z,96411.59
2023-12-23T06:27:20.131Z,96413.96
2023-12-23T06:29:47.562Z,96419.42
2023-12-23T06:32:15.041Z,96421.67
2023-12-23T06:34:42.582Z,96424.00
2023-12-23T06:37:10.104Z,96425.41
2023-12-23T06:39:37.548Z,96433.39
2023-12-23T06:42:04.999Z,96432.89
2023-12-23T06:44:32.501Z,96441.39
2023-12-23T06:47:00.108Z,96434.34
2023-12-23T06:49:29.054Z,96442.60
2023-12-23T06:51:57.138Z,96449.05
2023-12-23T06:54:25.801Z,96455.13
2023-12-23T06:56:53.261Z,96458.38
2023-12-23T06:59:20.720Z,96465.69
2023-12-23T07:01:48.301Z,96463.05
2023-12-23T07:04:15.754Z,96466.70
2023-12-23T07:06:43.245Z,96471.02
2023-12-23T07:09:11.108Z,96469.27
2023-12-23T07:11:38.552Z,96471.89
2023-12-23T07:14:06.054Z,96477.75
2023-12-23T07:16:33.717Z,96480.48
2023-12-23T07:19:01.258Z,96482.46
2023-12-23T07:21:28.805Z,96486.84
2023-12-23T07:23:56.218Z,96487.30
2023-12-23T07:26:23.909Z,96491.46
2023-12-23T07:28:51.507Z,96495.09
2023-12-23T07:31:19.269Z,96490.64
2023-12-23T07:33:48.014Z,96489.11
2023-12-23T07:36:15.838Z,96490.48
2023-12-23T07:38:43.307Z,96493.67
2023-12-23T07:41:12.754Z,96489.63
2023-12-23T07:43:40.346Z,96491.77
2023-12-23T07:46:08.415Z,96495.63
2023-12-23T07:48:36.166Z,96504.53
2023-12-23T07:51:08.221Z,96501.02
2023-12-23T07:53:35.954Z,96505.95
2023-12-23T07:56:04.144Z,96508.30
2023-12-23T07:58:31.666Z,96510.05
2023-12-23T08:00:59.272Z,96513.26
2023-12-23T08:03:26.894Z,96510.81
2023-12-23T08:05:54.417Z,96511.74
2023-12-23T08:08:22.056Z,96513.58
2023-12-23T08:10:51.571Z,96509.06
2023-12-23T08:13:19.331Z,96511.44
2023-12-23T08:15:46.779Z,96512.18
2023-12-23T08:18:14.332Z,96510.86
2023-12-23T08:20:41.877Z,96510.56
2023-12-23T08:23:09.334Z,96512.14
2023-12-23T08:25:36.946Z,96503.77
2023-12-23T08:28:04.896Z,96512.24
2023-12-23T08:30:32.361Z,96513.65
2023-12-23T08:33:00.142Z,96518.95
2023-12-23T08:35:27.859Z,96515.32
2023-12-23T08:37:55.517Z,96510.73
2023-12-23T08:43:19.590Z,96519.68
2023-12-23T08:45:47.026Z,96513.97
2023-12-23T08:48:14.628Z,96511.67
2023-12-23T08:50:42.136Z,96513.05
2023-12-23T08:53:09.978Z,96515.79
2023-12-23T08:55:37.516Z,96518.50
2023-12-23T08:58:05.096Z,96520.25
2023-12-23T09:00:32.590Z,96515.85
2023-12-23T09:03:00.377Z,96518.52
2023-12-23T09:05:27.908Z,96524.43
2023-12-23T09:07:55.932Z,96523.73
2023-12-23T09:10:24.040Z,96521.00
2023-12-23T09:12:51.518Z,96519.06
2023-12-23T09:15:19.017Z,96518.86
2023-12-23T09:17:47.006Z,96523.27
2023-12-23T09:20:14.649Z,96529.65
2023-12-23T09:22:42.362Z,96534.97
2023-12-23T09:25:10.257Z,96537.92
2023-12-23T09:27:37.705Z,96535.09
2023-12-23T09:30:06.583Z,96529.58
2023-12-23T09:32:34.097Z,96525.23
2023-12-23T09:35:04.911Z,96521.83
2023-12-23T09:37:33.583Z,96525.34
2023-12-23T09:40:02.631Z,96528.41
2023-12-23T09:42:30.209Z,96521.61
2023-12-23T09:44:58.129Z,96529.40
2023-12-23T09:47:26.366Z,96532.61
2023-12-23T09:49:53.951Z,96537.04
2023-12-23T09:52:21.413Z,96540.95
2023-12-23T09:54:54.068Z,96538.13
2023-12-23T09:57:21.717Z,96536.69
2023-12-23T09:59:53.409Z,96534.66
2023-12-23T10:02:21.019Z,96530.64
2023-12-23T10:04:48.493Z,96526.61
2023-12-23T10:07:16.642Z,96522.11
2023-12-23T10:09:44.123Z,96519.20
2023-12-23T10:12:11.524Z,96515.69
2023-12-23T10:14:42.446Z,96519.29
2023-12-23T10:17:09.965Z,96518.59
2023-12-23T10:19:37.785Z,96510.44
2023-12-23T10:22:05.479Z,96518.95
2023-12-23T10:24:33.069Z,96520.72
2023-12-23T10:27:00.568Z,96523.16
2023-12-23T10:29:28.120Z,96525.81
2023-12-23T10:31:56.851Z,96530.70
2023-12-23T10:34:24.541Z,96534.02
2023-12-23T10:36:52.165Z,96534.58
2023-12-23T10:39:27.340Z,96535.32
2023-12-23T10:41:59.302Z,96538.73
2023-12-23T10:44:26.891Z,96546.79
2023-12-23T10:46:54.439Z,96547.98
2023-12-23T10:49:23.124Z,96547.34
2023-12-23T10:51:50.944Z,96555.71
2023-12-23T10:54:19.605Z,96554.17
2023-12-23T10:56:47.057Z,96556.52
2023-12-23T10:59:14.557Z,96553.89
2023-12-23T11:01:42.176Z,96557.73
2023-12-23T11:04:09.854Z,96552.64
2023-12-23T11:06:39.371Z,96556.98
2023-12-23T11:09:06.878Z,96568.36
2023-12-23T11:11:34.472Z,96568.39
2023-12-23T11:14:01.986Z,96570.15
2023-12-23T11:16:30.288Z,96567.36
2023-12-23T11:18:57.827Z,96570.70
2023-12-23T11:21:25.451Z,96574.05
2023-12-23T11:23:53.325Z,96580.58
2023-12-23T11:26:40.812Z,96584.43
2023-12-23T11:29:09.453Z,96584.27
2023-12-23T11:31:37.273Z,96586.23
2023-12-23T11:34:18.559Z,96584.84
2023-12-23T11:36:47.233Z,96586.14
2023-12-23T11:39:18.849Z,96584.87
2023-12-23T11:41:47.407Z,96586.86
2023-12-23T11:44:15.289Z,96586.54
2023-12-23T11:46:42.911Z,96594.46
2023-12-23T11:49:11.382Z,96600.34
2023-12-23T11:51:40.267Z,96604.43
2023-12-23T11:54:09.179Z,96606.73
2023-12-23T11:56:37.113Z,96606.84
2023-12-23T11:59:05.117Z,96605.80
2023-12-23T12:01:34.406Z,96601.16
2023-12-23T12:04:02.187Z,96607.05
2023-12-23T12:06:29.887Z,96608.48
2023-12-23T12:08:57.467Z,96612.51
2023-12-23T12:11:26.961Z,96609.20
2023-12-23T12:14:00.392Z,96610.48
2023-12-23T12:16:28.184Z,96608.77
2023-12-23T12:18:56.127Z,96611.92
2023-12-23T12:21:23.632Z,96613.27
2023-12-23T12:23:51.281Z,96610.63
2023-12-23T12:26:20.528Z,96610.29
2023-12-23T12:28:48.106Z,96613.77
2023-12-23T12:31:15.871Z,96616.80
2023-12-23T12:33:43.884Z,96616.30
2023-12-23T12:36:14.875Z,96615.31
2023-12-23T12:38:43.803Z,96616.30
2023-12-23T12:41:12.293Z,96619.13
2023-12-23T12:43:43.519Z,96622.89
2023-12-23T12:46:12.832Z,96622.34
2023-12-23T12:48:40.371Z,96625.25
2023-12-23T12:51:08.137Z,96629.84
2023-12-23T12:53:36.416Z,96632.92
2023-12-23T12:56:11.321Z,96636.34
2023-12-23T12:58:39.107Z,96638.13
2023-12-23T13:01:06.619Z,96644.24
2023-12-23T13:03:34.148Z,96646.55
2023-12-23T13:06:01.659Z,96642.95
2023-12-23T13:08:29.563Z,96645.44
2023-12-23T13:10:57.112Z,96653.17
2023-12-23T13:13:24.599Z,96654.34
2023-12-23T13:15:54.987Z,96657.87
2023-12-23T13:18:22.815Z,96661.70
2023-12-23T13:20:50.557Z,96668.07
2023-12-23T13:23:18.101Z,96667.20
2023-12-23T13:25:46.380Z,96669.23
2023-12-23T13:28:13.853Z,96674.08
2023-12-23T13:30:41.410Z,96669.39
2023-12-23T13:33:09.440Z,96674.79
2023-12-23T13:35:37.338Z,96677.45
2023-12-23T13:38:05.618Z,96677.79
2023-12-23T13:40:34.023Z,96681.73
2023-12-23T13:43:01.482Z,96686.37
2023-12-23T13:45:28.933Z,96690.58
2023-12-23T13:47:56.505Z,96687.89
2023-12-23T13:50:24.307Z,96697.64
2023-12-23T13:52:52.364Z,96705.31
2023-12-23T13:55:20.012Z,96710.34
2023-12-23T13:57:47.552Z,96712.47
2023-12-23T14:00:15.795Z,96710.24
2023-12-23T14:02:43.287Z,96710.38
2023-12-23T14:05:10.733Z,96714.47
2023-12-23T14:07:38.167Z,96715.86
2023-12-23T14:10:06.297Z,96721.52
2023-12-23T14:12:33.773Z,96725.65
2023-12-23T14:15:01.271Z,96730.53
2023-12-23T14:17:29.430Z,96729.49
2023-12-23T14:19:57.120Z,96734.89
2023-12-23T14:22:24.718Z,96740.80
2023-12-23T14:24:52.359Z,96741.63
2023-12-23T14:27:20.351Z,96745.27
2023-12-23T14:29:49.756Z,96748.03
2023-12-23T14:32:18.398Z,96750.10
2023-12-23T14:34:45.977Z,96745.10
2023-12-23T14:37:13.556Z,96746.11
2023-12-23T14:39:41.030Z,96746.36
2023-12-23T14:42:09.140Z,96748.66
2023-12-23T14:44:36.686Z,96750.22
2023-12-23T14:47:04.736Z,96755.98
2023-12-23T14:49:32.451Z,96757.36
2023-12-23T14:51:59.904Z,96761.23
2023-12-23T14:54:27.328Z,96758.43
2023-12-23T14:56:54.766Z,96754.60
2023-12-23T14:59:22.489Z,96753.21
2023-12-23T15:01:50.024Z,96753.55
2023-12-23T15:04:17.617Z,96757.34
2023-12-23T15:06:45.190Z,96760.31
2023-12-23T15:09:13.284Z,96760.07
2023-12-23T15:11:40.712Z,96764.28
2023-12-23T15:14:08.261Z,96766.55
2023-12-23T15:16:36.035Z,96771.80
2023-12-23T15:19:05.052Z,96769.30
2023-12-23T15:21:32.564Z,96773.52
2023-12-23T15:24:00.062Z,96775.45
2023-12-23T15:26:28.607Z,96778.73
2023-12-23T15:28:56.230Z,96780.95
2023-12-23T15:31:23.672Z,96776.43
2023-12-23T15:33:51.792Z,96780.15
2023-12-23T15:36:19.472Z,96783.04
2023-12-23T15:38:46.937Z,96780.25
2023-12-23T15:41:14.417Z,96783.52
2023-12-23T15:43:41.988Z,96782.66
2023-12-23T15:46:09.418Z,96784.06
2023-12-23T15:48:36.997Z,96786.29
2023-12-23T15:51:04.547Z,96788.42
2023-12-23T15:53:32.121Z,96790.61
2023-12-23T15:56:02.878Z,96786.99
2023-12-23T15:58:30.481Z,96786.98
2023-12-23T16:00:58.032Z,96787.13
2023-12-23T16:03:25.631Z,96789.13
2023-12-23T16:05:53.378Z,96784.52
2023-12-23T16:08:21.112Z,96782.48
2023-12-23T16:10:48.602Z,96783.25
2023-12-23T16:13:16.089Z,96784.08
2023-12-23T16:15:43.613Z,96786.84
2023-12-23T16:18:11.222Z,96790.41
2023-12-23T16:20:38.880Z,96790.55
2023-12-23T16:23:06.455Z,96790.05
2023-12-23T16:25:34.120Z,96794.11
2023-12-23T16:28:01.738Z,96799.52
2023-12-23T16:30:29.238Z,96804.22
2023-12-23T16:32:57.023Z,96801.94
2023-12-23T16:35:24.937Z,96804.17
2023-12-23T16:37:52.558Z,96803.18
2023-12-23T16:40:23.156Z,96801.05
2023-12-23T16:42:51.146Z,96795.90
2023-12-23T16:45:19.937Z,96800.97
2023-12-23T16:47:47.625Z,96803.91
2023-12-23T16:50:16.253Z,96802.23
2023-12-23T16:52:43.861Z,96798.82
2023-12-23T16:55:12.330Z,96802.81
2023-12-23T16:57:40.522Z,96805.72
2023-12-23T17:00:09.141Z,96812.17
2023-12-23T17:02:36.698Z,96813.98
2023-12-23T17:05:05.212Z,96813.56
2023-12-23T17:07:33.063Z,96810.85
2023-12-23T17:10:00.897Z,96814.89
2023-12-23T17:12:28.380Z,96815.60
2023-12-23T17:14:57.870Z,96816.23
2023-12-23T17:17:26.098Z,96811.77
2023-12-23T17:19:53.702Z,96823.15
2023-12-23T17:22:23.684Z,96831.23
2023-12-23T17:24:53.229Z,96834.98
2023-12-23T17:27:20.744Z,96830.09
2023-12-23T17:29:48.236Z,96826.72
2023-12-23T17:32:15.941Z,96828.35
2023-12-23T17:34:43.427Z,96830.81
2023-12-23T17:37:10.996Z,96835.52
2023-12-23T17:39:38.475Z,96833.97
2023-12-23T17:42:05.953Z,96834.71
2023-12-23T17:44:33.609Z,96835.85
2023-12-23T17:47:02.025Z,96834.48
2023-12-23T17:49:29.644Z,96835.36
2023-12-23T17:51:57.244Z,96831.35
2023-12-23T17:54:24.669Z,96830.11
2023-12-23T17:56:52.179Z,96834.77
2023-12-23T17:59:19.684Z,96832.73
2023-12-23T18:01:47.217Z,96830.44
2023-12-23T18:04:14.658Z,96832.20
2023-12-23T18:06:42.213Z,96838.14
2023-12-23T18:09:09.819Z,96835.59
2023-12-23T18:11:37.307Z,96842.04
2023-12-23T18:14:04.995Z,96843.05
2023-12-23T18:16:32.542Z,96843.73
2023-12-23T18:19:00.221Z,96844.17
2023-12-23T18:21:28.097Z,96843.52
2023-12-23T18:23:55.507Z,96852.05
2023-12-23T18:26:23.055Z,96854.85
2023-12-23T18:28:50.510Z,96865.07
2023-12-23T18:31:18.058Z,96865.02
2023-12-23T18:33:45.575Z,96863.98
2023-12-23T18:36:13.198Z,96858.60
2023-12-23T18:38:40.667Z,96859.75
2023-12-23T18:41:08.132Z,96862.36
2023-12-23T18:43:35.794Z,96864.73
2023-12-23T18:46:04.084Z,96861.47
2023-12-23T18:48:31.651Z,96870.37
2023-12-23T18:50:59.289Z,96868.05
2023-12-23T18:53:26.985Z,96875.69
2023-12-23T18:55:54.734Z,96873.66
2023-12-23T18:58:22.349Z,96873.40
2023-12-23T19:00:51.544Z,96873.64
2023-12-23T19:03:19.873Z,96873.94
2023-12-23T19:05:47.532Z,96876.52
2023-12-23T19:08:16.979Z,96877.98
2023-12-23T19:10:47.403Z,96881.26
2023-12-23T19:13:14.936Z,96881.54
2023-12-23T19:15:42.433Z,96883.26
2023-12-23T19:18:10.147Z,96891.40
2023-12-23T19:20:37.839Z,96893.67
2023-12-23T19:23:07.661Z,96898.05
2023-12-23T19:25:35.341Z,96894.58
2023-12-23T19:28:03.392Z,96894.67
2023-12-23T19:30:30.939Z,96891.17
2023-12-23T19:32:59.028Z,96895.09
2023-12-23T19:35:27.038Z,96897.85
2023-12-23T19:37:55.493Z,96897.75
2023-12-23T19:40:23.561Z,96895.87
2023-12-23T19:42:51.299Z,96896.61
2023-12-23T19:45:19.382Z,96898.57
2023-12-23T19:47:47.149Z,96899.32
2023-12-23T19:50:14.931Z,96894.25
2023-12-23T19:52:42.570Z,96892.53
2023-12-23T19:55:10.987Z,96894.89
2023-12-23T19:57:38.536Z,96891.86
2023-12-23T20:00:10.281Z,96892.88
2023-12-23T20:02:38.016Z,96889.93
2023-12-23T20:05:06.455Z,96886.45
2023-12-23T20:07:33.994Z,96888.65
2023-12-23T20:10:01.462Z,96896.34
2023-12-23T20:12:28.992Z,96897.98
2023-12-23T20:14:56.462Z,96900.63
2023-12-23T20:17:24.029Z,96904.59
2023-12-23T20:19:51.638Z,96907.02
2023-12-23T20:22:19.166Z,96911.23
2023-12-23T20:24:46.648Z,96909.02
2023-12-23T20:27:14.259Z,96907.64
2023-12-23T20:29:41.660Z,96910.39
2023-12-23T20:32:09.484Z,96909.77
2023-12-23T20:34:36.867Z,96908.86
2023-12-23T20:37:08.460Z,96914.46
2023-12-23T20:39:35.932Z,96901.63
2023-12-23T20:42:03.727Z,96913.98
2023-12-23T20:44:32.115Z,96917.10
2023-12-23T20:47:00.081Z,96919.11
2023-12-23T20:49:27.646Z,96919.97
2023-12-23T20:51:55.215Z,96922.98
2023-12-23T20:54:22.729Z,96921.10
2023-12-23T20:56:50.210Z,96923.89
2023-12-23T21:01:27.945Z,96925.98
2023-12-23T21:03:57.238Z,96920.92
2023-12-23T21:06:24.959Z,96921.73
2023-12-23T21:08:52.673Z,96916.06
2023-12-23T21:11:20.614Z,96920.27
2023-12-23T21:13:48.239Z,96918.02
2023-12-23T21:16:15.694Z,96921.60
2023-12-23T21:18:45.530Z,96920.12
2023-12-23T21:21:13.674Z,96924.48
2023-12-23T21:23:41.444Z,96923.39
2023-12-23T21:26:20.734Z,96925.71
2023-12-23T21:28:48.762Z,96923.61
2023-12-23T21:31:16.224Z,96916.30
2023-12-23T21:33:43.936Z,96921.95
2023-12-23T21:36:11.482Z,96920.56
2023-12-23T21:38:39.167Z,96924.59
2023-12-23T21:41:06.809Z,96918.58
2023-12-23T21:43:34.421Z,96924.11
2023-12-23T21:46:02.042Z,96927.16
2023-12-23T21:48:29.560Z,96928.11
2023-12-23T21:50:57.137Z,96923.30
2023-12-23T21:53:24.706Z,96924.61
2023-12-23T21:55:52.363Z,96919.28
2023-12-23T21:58:19.979Z,96924.86
2023-12-23T22:00:49.060Z,96927.10
2023-12-23T22:03:16.885Z,96928.02
2023-12-23T22:05:44.673Z,96927.02
2023-12-23T22:08:12.303Z,96933.70
2023-12-23T22:10:39.767Z,96934.71
2023-12-23T22:13:07.167Z,96938.63
2023-12-23T22:15:34.953Z,96937.27
2023-12-23T22:18:02.664Z,96943.25
2023-12-23T22:20:30.235Z,96943.19
2023-12-23T22:22:57.733Z,96946.83
2023-12-23T22:25:25.739Z,96945.31
2023-12-23T22:27:53.340Z,96948.55
2023-12-23T22:30:21.251Z,96954.14
2023-12-23T22:32:48.875Z,96951.92
2023-12-23T22:35:16.518Z,96950.05
2023-12-23T22:37:43.942Z,96956.62
2023-12-23T22:40:11.555Z,96961.19
2023-12-23T22:42:39.017Z,96958.48
2023-12-23T22:45:07.367Z,96957.20
2023-12-23T22:47:34.866Z,96960.89
2023-12-23T22:50:02.774Z,96967.42
2023-12-23T22:52:30.348Z,96968.02
2023-12-23T22:54:57.949Z,96968.55
2023-12-23T22:57:25.492Z,96969.31
2023-12-23T22:59:54.205Z,96976.17
2023-12-23T23:02:22.027Z,96975.05
2023-12-23T23:04:50.181Z,96978.48
2023-12-23T23:07:17.639Z,96978.66
2023-12-23T23:09:45.089Z,96984.16
2023-12-23T23:12:12.522Z,96983.14
2023-12-23T23:14:41.265Z,96973.66
2023-12-23T23:17:09.135Z,96982.40
2023-12-23T23:19:36.861Z,96993.26
2023-12-23T23:22:04.381Z,96982.30
2023-12-23T23:24:31.884Z,96979.39
2023-12-23T23:26:59.365Z,96991.38
2023-12-23T23:29:27.016Z,96997.82
2023-12-23T23:31:54.526Z,96996.16
2023-12-23T23:34:21.989Z,96999.81
2023-12-23T23:36:49.530Z,96997.59
2023-12-23T23:39:16.994Z,97003.21
2023-12-23T23:41:44.422Z,97013.45
2023-12-23T23:44:11.946Z,97015.21
2023-12-23T23:46:39.370Z,97010.17
2023-12-23T23:49:06.770Z,97016.66
2023-12-23T23:51:34.235Z,97020.08
2023-12-23T23:54:01.677Z,97026.89
2023-12-23T23:56:29.460Z,97021.69
2023-12-23T23:58:57.546Z,97028.30
